Time;durP1;ratioP1;P1;durP2;ratioP2;P2;SDS_P1;SDS_P2;PMS_P1;PMS_P2;Temp;Humidity;BMP_temperature;BMP_pressure;BME280_temperature;BME280_humidity;BME280_pressure;Samples;Min_cycle;Max_cycle;Signal;HPM_P1;HPM_P2
2021/06/14 00:00:54;;;;;;;5.28;3.30;;;12.40;62.30;;;11.94;47.77;95777.00;5102842;28;20727;-79
2021/06/14 00:03:20;;;;;;;5.07;3.00;;;12.40;62.30;;;11.93;47.71;95770.91;5064296;28;20223;-79
2021/06/14 00:05:48;;;;;;;5.22;2.90;;;12.40;62.40;;;11.94;47.36;95766.50;5029874;28;20568;-79
2021/06/14 00:08:20;;;;;;;8.10;3.03;;;12.40;62.70;;;11.93;47.89;95768.28;4984799;28;20234;-79
2021/06/14 00:10:52;;;;;;;7.78;3.60;;;12.30;63.00;;;11.94;48.45;95763.88;4842916;29;20214;-79
2021/06/14 00:13:20;;;;;;;5.15;2.85;;;12.40;62.90;;;11.94;47.64;95766.50;4711408;30;20747;-79
2021/06/14 00:18:23;;;;;;;4.65;3.10;;;12.40;62.70;;;11.96;47.87;95753.97;5145964;27;20656;-79
2021/06/14 00:20:58;;;;;;;4.88;3.20;;;12.30;62.90;;;12.00;47.95;95756.09;5068461;28;20204;-80
2021/06/14 00:23:28;;;;;;;4.03;2.90;;;12.30;63.20;;;12.04;48.31;95756.56;5027201;28;20285;-79
2021/06/14 00:25:55;;;;;;;4.25;3.42;;;12.40;63.10;;;12.09;48.26;95750.75;5045780;28;20303;-80
2021/06/14 00:28:21;;;;;;;4.38;3.17;;;12.40;63.20;;;12.14;48.20;95751.84;5055476;28;20232;-79
2021/06/14 00:30:51;;;;;;;5.68;2.90;;;12.40;63.20;;;12.23;48.08;95749.94;5016588;28;20205;-79
2021/06/14 00:33:21;;;;;;;4.07;2.75;;;12.40;63.40;;;12.30;48.16;95753.50;4933898;28;20236;-79
2021/06/14 00:35:49;;;;;;;6.53;3.35;;;12.50;63.80;;;12.38;48.02;95747.31;4869335;29;20219;-80
2021/06/14 00:40:29;;;;;;;4.13;2.72;;;12.50;63.40;;;12.52;47.47;95750.13;5130627;27;20614;-79
2021/06/14 00:42:56;;;;;;;4.78;3.00;;;12.60;63.20;;;12.59;47.78;95738.66;5090434;28;20239;-80
2021/06/14 00:45:30;;;;;;;5.80;3.33;;;12.70;63.40;;;12.72;48.27;95740.66;5095603;28;20214;-79
2021/06/14 00:47:59;;;;;;;4.35;3.00;;;12.80;63.60;;;12.82;47.98;95737.72;5081953;28;20579;-79
2021/06/14 00:50:52;;;;;;;5.53;3.28;;;13.00;63.90;;;12.94;47.95;95741.50;5091915;28;20409;-79
2021/06/14 00:53:32;;;;;;;5.40;3.33;;;13.00;63.60;;;13.06;47.67;95741.84;5013724;28;20260;-78
2021/06/14 00:56:09;;;;;;;6.95;3.38;;;13.00;64.00;;;13.17;48.76;95729.16;4982958;28;20205;-79
2021/06/14 00:59:55;;;;;;;3.88;3.08;;;13.10;63.90;;;13.26;47.72;95731.50;5116230;27;21104;-79
2021/06/14 01:02:24;;;;;;;6.20;3.63;;;13.30;63.50;;;13.35;47.91;95734.81;5062707;28;20207;-79
2021/06/14 01:04:52;;;;;;;5.90;3.13;;;13.40;63.70;;;13.44;47.92;95728.44;5033994;28;20234;-79
2021/06/14 01:07:19;;;;;;;5.47;3.53;;;13.50;63.60;;;13.52;48.05;95730.13;5055775;28;20203;-80
2021/06/14 01:09:46;;;;;;;10.13;4.28;;;13.60;63.80;;;13.60;47.89;95727.34;5021157;28;20231;-79
2021/06/14 01:12:21;;;;;;;6.43;3.35;;;13.60;63.70;;;13.67;47.96;95721.31;4936373;28;20285;-79
2021/06/14 01:15:00;;;;;;;6.13;2.92;;;13.70;63.80;;;13.75;47.74;95723.81;4821476;29;20234;-79
2021/06/14 01:17:58;;;;;;;4.97;3.03;;;13.80;64.00;;;13.81;47.76;95727.53;4691779;30;20647;-79
2021/06/14 01:22:08;;;;;;;3.65;2.72;;;13.80;63.50;;;13.90;47.42;95729.81;5150458;27;20550;-79
2021/06/14 01:25:03;;;;;;;4.68;2.65;;;13.90;63.40;;;13.95;47.46;95729.22;5099053;28;20225;-80
2021/06/14 01:28:04;;;;;;;7.70;3.08;;;14.00;63.70;;;13.99;47.34;95722.56;5096724;28;20576;-80
2021/06/14 01:30:34;;;;;;;6.70;3.15;;;14.10;63.70;;;14.05;47.53;95721.81;5086034;28;20738;-79
2021/06/14 01:33:09;;;;;;;5.65;2.65;;;14.20;63.50;;;14.08;47.28;95717.97;5064879;28;20212;-79
2021/06/14 01:35:50;;;;;;;5.15;3.53;;;14.20;63.50;;;14.13;47.39;95718.19;4895304;28;20234;-79
2021/06/14 01:38:19;;;;;;;6.25;3.28;;;14.20;63.50;;;14.16;47.28;95723.09;4823911;29;20281;-79
2021/06/14 01:41:03;;;;;;;4.68;2.70;;;14.30;63.50;;;14.17;47.42;95722.09;5149859;27;20544;-80
2021/06/14 01:43:34;;;;;;;6.10;2.92;;;14.30;63.70;;;14.24;47.44;95727.38;5091560;27;20220;-80
2021/06/14 01:46:10;;;;;;;6.35;3.13;;;14.30;63.60;;;14.27;47.78;95723.53;5067389;28;20206;-79
2021/06/14 01:48:40;;;;;;;5.97;3.10;;;14.30;63.50;;;14.25;47.68;95711.34;5008272;28;20726;-79
2021/06/14 01:51:15;;;;;;;8.93;4.15;;;14.40;63.20;;;14.32;47.53;95718.47;5022135;28;20211;-79
2021/06/14 01:54:02;;;;;;;7.60;3.25;;;14.40;63.30;;;14.32;47.38;95714.03;4970588;28;20213;-79
2021/06/14 01:56:49;;;;;;;5.78;3.25;;;14.40;63.30;;;14.31;47.54;95712.41;4864690;29;20308;-79
2021/06/14 01:59:25;;;;;;;5.45;2.97;;;14.50;63.40;;;14.33;47.37;95718.31;4612495;30;20227;-80
2021/06/14 02:02:05;;;;;;;4.82;3.20;;;14.50;63.40;;;14.34;47.26;95703.28;5150038;27;20322;-79
2021/06/14 02:04:39;;;;;;;5.32;3.42;;;14.50;63.10;;;14.33;47.45;95702.47;5081244;28;20233;-80
2021/06/14 02:07:12;;;;;;;3.88;3.00;;;14.50;63.20;;;14.31;47.47;95701.06;5061956;28;20570;-79
2021/06/14 02:09:41;;;;;;;5.75;3.38;;;14.50;63.20;;;14.34;47.48;95705.91;5024903;28;20308;-79
2021/06/14 02:12:09;;;;;;;6.35;3.65;;;14.60;63.20;;;14.33;47.72;95699.00;5028199;28;20208;-79
2021/06/14 02:14:40;;;;;;;5.72;3.78;;;14.50;63.20;;;14.32;47.64;95695.56;5027277;28;20238;-79
2021/06/14 02:17:13;;;;;;;7.10;3.90;;;14.50;63.40;;;14.31;47.56;95699.22;4928405;28;20289;-82
2021/06/14 02:19:43;;;;;;;5.82;3.20;;;14.50;63.20;;;14.31;48.00;95693.13;4810961;29;20231;-79
2021/06/14 02:24:47;;;;;;;7.30;4.15;;;14.50;63.20;;;14.24;48.53;95695.72;5128254;27;20671;-79
2021/06/14 02:27:17;;;;;;;6.05;3.65;;;14.50;63.60;;;14.23;49.23;95700.19;5048057;28;20202;-79
2021/06/14 02:29:45;;;;;;;6.05;3.58;;;14.50;63.80;;;14.20;48.96;95702.41;5045693;28;20235;-79
2021/06/14 02:32:13;;;;;;;5.00;3.47;;;14.60;63.80;;;14.18;49.17;95692.03;5047334;28;20342;-78
2021/06/14 02:34:43;;;;;;;6.25;3.60;;;14.50;63.80;;;14.15;49.62;95692.44;5037169;28;20259;-79
2021/06/14 02:37:12;;;;;;;5.72;3.92;;;14.50;64.00;;;14.12;49.23;95694.66;4981240;28;20221;-79
2021/06/14 02:39:43;;;;;;;7.13;4.03;;;14.50;64.00;;;14.10;49.41;95694.84;4885233;29;20230;-78
2021/06/14 02:42:10;;;;;;;5.18;3.58;;;14.50;64.10;;;14.06;49.75;95690.94;4679580;29;20314;-79
2021/06/14 02:46:45;;;;;;;6.68;3.55;;;14.40;64.10;;;14.00;49.66;95700.47;5140537;27;20941;-79
2021/06/14 02:49:15;;;;;;;6.80;3.72;;;14.50;64.20;;;13.98;50.01;95699.03;5093440;28;20221;-79
2021/06/14 02:51:43;;;;;;;5.22;3.58;;;14.40;64.30;;;13.97;49.42;95698.22;5089681;28;21017;-79
2021/06/14 02:54:20;;;;;;;5.68;3.50;;;14.40;65.20;;;13.98;49.62;95696.41;5058324;28;20284;-79
2021/06/14 02:56:51;;;;;;;7.10;4.05;;;14.30;64.40;;;13.96;49.61;95687.88;4984272;28;20297;-79
2021/06/14 02:59:19;;;;;;;6.07;3.67;;;14.40;64.30;;;13.93;50.27;95687.22;4947724;28;20674;-79
2021/06/14 03:01:49;;;;;;;7.57;4.13;;;14.30;64.40;;;13.92;50.08;95697.97;4903968;29;20734;-79
2021/06/14 03:04:17;;;;;;;5.20;3.80;;;14.30;64.50;;;13.89;50.25;95696.53;4800016;29;20235;-80
2021/06/14 03:08:41;;;;;;;4.95;3.85;;;14.30;64.60;;;13.82;50.53;95689.56;5142814;27;20972;-78
2021/06/14 03:11:08;;;;;;;9.38;4.47;;;14.20;64.50;;;13.80;50.43;95692.41;5087838;28;20220;-80
2021/06/14 03:13:36;;;;;;;5.90;3.72;;;14.20;64.60;;;13.80;50.09;95691.63;5068341;28;20740;-80
2021/06/14 03:16:03;;;;;;;5.50;4.00;;;14.10;64.60;;;13.80;49.58;95688.97;5063172;28;20231;-80
2021/06/14 03:18:31;;;;;;;6.85;3.92;;;14.10;64.40;;;13.81;49.89;95694.06;4972476;28;20229;-80
2021/06/14 03:21:00;;;;;;;5.20;3.45;;;14.20;64.70;;;13.81;49.52;95688.78;4922090;28;20302;-79
2021/06/14 03:23:27;;;;;;;6.30;3.85;;;14.10;64.60;;;13.83;50.39;95688.56;4849148;29;20279;-79
2021/06/14 03:25:54;;;;;;;8.18;4.13;;;14.10;64.80;;;13.82;50.17;95685.13;4758964;29;20231;-79
2021/06/14 03:30:53;;;;;;;7.32;3.70;;;14.10;64.80;;;13.88;49.58;95684.38;5150369;27;20338;-79
2021/06/14 03:33:20;;;;;;;7.85;3.85;;;14.10;64.80;;;13.90;49.32;95681.53;5092303;27;20220;-79
2021/06/14 03:35:53;;;;;;;5.20;3.78;;;14.10;64.70;;;13.88;49.55;95679.09;5079568;27;20267;-79
2021/06/14 03:38:20;;;;;;;7.85;3.60;;;14.10;64.90;;;13.93;49.44;95689.06;5138243;27;20294;-79
2021/06/14 03:40:47;;;;;;;4.75;3.20;;;14.10;64.70;;;13.96;49.42;95679.94;5121530;28;20220;-79
2021/06/14 03:43:13;;;;;;;5.97;3.88;;;14.20;64.80;;;13.98;49.72;95686.66;5061317;28;20228;-79
2021/06/14 03:45:40;;;;;;;5.63;4.15;;;14.10;64.80;;;13.99;50.39;95679.53;5012463;28;20769;-79
2021/06/14 03:48:07;;;;;;;5.47;4.00;;;14.20;65.00;;;13.99;50.20;95677.75;4850576;29;20238;-79
2021/06/14 03:52:40;;;;;;;8.90;3.78;;;14.20;65.20;;;13.99;50.35;95680.38;5150195;27;20613;-79
2021/06/14 03:55:08;;;;;;;8.00;4.00;;;14.20;65.10;;;14.01;50.10;95682.81;5085022;28;20215;-79
2021/06/14 03:57:35;;;;;;;6.15;3.85;;;14.20;65.10;;;14.02;50.26;95685.25;5055436;28;20213;-79
2021/06/14 04:00:06;;;;;;;6.63;3.53;;;14.20;65.10;;;14.03;50.14;95681.59;5086987;28;20577;-79
2021/06/14 04:02:40;;;;;;;5.70;3.97;;;14.30;65.20;;;14.02;50.11;95677.34;5016629;28;20262;-80
2021/06/14 04:05:09;;;;;;;6.10;3.83;;;14.30;65.10;;;13.99;50.81;95687.47;4926339;29;20236;-79
2021/06/14 04:07:59;;;;;;;4.68;3.45;;;14.20;65.20;;;13.93;51.05;95686.44;4754224;29;20236;-79
2021/06/14 04:10:26;;;;;;;8.43;4.30;;;14.30;65.30;;;13.91;50.81;95686.63;4684826;30;20252;-79
2021/06/14 04:14:45;;;;;;;6.85;4.18;;;14.30;65.30;;;13.81;51.38;95672.97;5132289;27;20582;-80
2021/06/14 04:17:12;;;;;;;8.10;4.00;;;14.30;65.60;;;13.79;51.49;95669.69;5082123;28;20201;-79
2021/06/14 04:19:38;;;;;;;6.25;3.88;;;14.20;65.60;;;13.78;51.92;95673.34;5123423;27;20291;-80
2021/06/14 04:22:05;;;;;;;8.50;4.75;;;14.20;65.90;;;13.78;52.08;95665.44;5108194;28;20592;-79
2021/06/14 04:24:32;;;;;;;10.50;4.38;;;14.20;66.10;;;13.81;51.67;95686.13;5043306;28;20215;-79
2021/06/14 04:26:59;;;;;;;6.47;3.67;;;14.20;66.00;;;13.83;51.78;95681.50;5035265;28;20199;-80
2021/06/14 04:29:26;;;;;;;6.63;4.20;;;14.20;66.10;;;13.85;52.19;95681.28;4958622;28;20231;-80
2021/06/14 04:31:52;;;;;;;6.88;4.20;;;14.10;66.10;;;13.87;52.13;95684.56;4813897;29;20250;-79
2021/06/14 04:36:12;;;;;;;7.63;4.38;;;14.20;66.30;;;13.87;52.18;95676.66;5150446;27;20558;-79
2021/06/14 04:38:39;;;;;;;10.07;4.70;;;14.20;66.30;;;13.90;52.32;95677.09;5100522;28;20287;-79
2021/06/14 04:41:07;;;;;;;8.35;5.07;;;14.20;66.40;;;13.91;52.13;95677.88;5095683;28;20198;-80
2021/06/14 04:43:35;;;;;;;7.32;4.28;;;14.20;66.40;;;13.93;52.28;95681.16;5051549;28;20223;-79
2021/06/14 04:46:01;;;;;;;6.60;4.30;;;14.20;66.40;;;13.93;52.18;95686.44;4998868;28;20675;-82
2021/06/14 04:48:28;;;;;;;6.47;3.90;;;14.20;66.40;;;13.96;52.25;95691.31;4955107;28;20305;-80
2021/06/14 04:50:55;;;;;;;6.75;4.20;;;14.20;66.40;;;13.98;52.32;95688.50;4828808;29;20215;-80
2021/06/14 04:53:22;;;;;;;8.98;4.50;;;14.20;66.40;;;13.97;52.12;95684.22;4725685;29;20251;-80
2021/06/14 04:58:08;;;;;;;5.70;4.40;;;14.20;66.50;;;13.97;52.59;95690.28;5147308;27;20409;-81
2021/06/14 05:00:35;;;;;;;7.13;4.53;;;14.30;66.70;;;14.03;52.25;95691.34;5086045;28;20199;-81
2021/06/14 05:03:02;;;;;;;8.50;4.63;;;14.20;66.50;;;14.05;52.38;95684.88;5069556;28;20197;-80
2021/06/14 05:05:29;;;;;;;8.13;4.78;;;14.20;66.60;;;14.13;52.01;95685.72;5055586;28;20202;-79
2021/06/14 05:07:55;;;;;;;6.30;4.50;;;14.30;66.70;;;14.16;52.27;95701.16;5097482;28;20241;-81
2021/06/14 05:10:23;;;;;;;7.68;4.57;;;14.40;66.90;;;14.19;52.33;95685.75;4993555;28;20261;-81
2021/06/14 05:12:49;;;;;;;7.80;4.50;;;14.40;66.90;;;14.25;52.12;95682.31;4893232;29;20236;-81
2021/06/14 05:15:17;;;;;;;6.63;4.38;;;14.40;66.80;;;14.31;52.35;95682.56;4773762;29;20781;-80
2021/06/14 05:20:20;;;;;;;7.40;4.25;;;14.50;66.90;;;14.46;52.04;95692.97;5150396;27;20554;-81
2021/06/14 05:22:47;;;;;;;10.30;4.38;;;14.50;67.70;;;14.49;52.00;95696.06;5108325;27;20196;-78
2021/06/14 05:25:14;;;;;;;7.00;4.60;;;14.60;66.80;;;14.53;51.76;95689.34;5057104;28;20868;-80
2021/06/14 05:27:41;;;;;;;5.40;4.05;;;14.60;66.80;;;14.60;51.58;95694.66;5051302;28;20209;-80
2021/06/14 05:30:08;;;;;;;7.15;4.35;;;14.70;66.70;;;14.62;51.76;95697.09;4996365;28;20217;-80
2021/06/14 05:32:35;;;;;;;6.82;4.45;;;14.70;66.70;;;14.66;51.67;95693.91;4940912;28;20660;-79
2021/06/14 05:35:01;;;;;;;7.47;4.30;;;14.80;66.70;;;14.66;51.59;95683.34;4878586;29;20229;-80
2021/06/14 05:37:28;;;;;;;9.07;4.40;;;14.80;66.50;;;14.67;51.53;95692.06;4834047;29;20219;-80
2021/06/14 05:42:01;;;;;;;7.00;4.30;;;14.80;66.50;;;14.70;52.13;95697.78;5148613;27;20554;-81
2021/06/14 05:44:28;;;;;;;6.50;4.45;;;14.90;66.70;;;14.79;51.86;95695.75;5095966;27;20213;-80
2021/06/14 05:46:55;;;;;;;5.13;3.70;;;14.90;66.80;;;14.89;51.60;95696.22;5091122;28;20201;-80
2021/06/14 05:49:22;;;;;;;7.47;4.43;;;15.00;66.90;;;14.99;51.61;95702.91;5106601;28;20262;-81
2021/06/14 05:51:48;;;;;;;7.38;4.57;;;15.00;66.80;;;15.08;51.29;95693.81;5086695;28;20297;-80
2021/06/14 05:54:15;;;;;;;6.43;4.15;;;15.10;66.80;;;15.18;51.92;95693.41;5049472;28;20222;-80
2021/06/14 05:56:41;;;;;;;5.60;4.05;;;15.20;66.80;;;15.28;51.21;95683.28;4985564;28;20660;-81
2021/06/14 05:59:08;;;;;;;7.32;4.20;;;15.20;66.70;;;15.41;51.14;95690.38;4846269;28;20234;-80
2021/06/14 06:04:11;;;;;;;7.93;3.78;;;15.30;66.80;;;15.73;50.93;95681.84;5127095;27;20584;-79
2021/06/14 06:06:38;;;;;;;7.32;4.60;;;15.50;66.80;;;15.80;50.44;95682.66;5083470;28;20266;-81
2021/06/14 06:09:05;;;;;;;6.53;4.07;;;15.70;66.50;;;15.86;49.92;95681.06;5083227;28;20230;-80
2021/06/14 06:11:32;;;;;;;7.15;4.55;;;15.70;66.30;;;15.89;50.26;95684.06;5018933;28;20570;-80
2021/06/14 06:13:59;;;;;;;7.47;4.20;;;15.80;66.30;;;15.94;49.90;95681.66;4970064;28;20253;-80
2021/06/14 06:16:26;;;;;;;8.25;4.20;;;15.90;66.40;;;16.03;50.34;95684.88;4910442;28;20274;-81
2021/06/14 06:18:52;;;;;;;8.50;4.30;;;16.00;66.50;;;16.09;50.08;95684.06;4889882;29;20228;-81
2021/06/14 06:21:19;;;;;;;8.07;4.35;;;16.10;66.40;;;16.12;50.00;95675.69;4791960;29;20214;-81
2021/06/14 06:25:54;;;;;;;8.88;4.35;;;16.10;66.20;;;16.17;50.06;95673.25;5130173;27;20901;-81
2021/06/14 06:28:20;;;;;;;6.65;4.65;;;16.20;66.10;;;16.20;50.13;95671.19;5104472;28;20228;-81
2021/06/14 06:30:47;;;;;;;5.60;3.83;;;16.20;65.90;;;16.23;50.35;95661.00;5036956;28;20563;-81
2021/06/14 06:33:14;;;;;;;7.90;4.50;;;16.30;66.10;;;16.26;49.73;95665.88;5024898;28;20228;-81
2021/06/14 06:35:41;;;;;;;5.35;3.67;;;16.30;65.90;;;16.31;49.58;95665.25;4976358;28;20210;-80
2021/06/14 06:38:07;;;;;;;6.13;3.90;;;16.30;65.90;;;16.36;49.61;95668.09;4930781;28;20358;-81
2021/06/14 06:40:34;;;;;;;8.43;4.30;;;16.30;65.80;;;16.35;49.63;95660.38;4890631;29;20309;-80
2021/06/14 06:43:05;;;;;;;7.30;4.07;;;16.40;65.90;;;16.49;49.56;95667.25;4704455;29;20211;-80
2021/06/14 06:47:35;;;;;;;7.05;3.85;;;16.40;65.80;;;16.62;49.60;95661.88;5148547;27;20641;-81
2021/06/14 06:50:03;;;;;;;6.53;3.85;;;16.50;65.90;;;16.73;49.43;95662.22;5120670;27;20746;-80
2021/06/14 06:52:32;;;;;;;8.43;4.20;;;16.60;66.00;;;16.79;49.47;95664.81;5078493;28;20251;-80
2021/06/14 06:54:58;;;;;;;10.02;4.65;;;16.70;66.10;;;16.85;49.42;95659.72;5085862;28;20231;-81
2021/06/14 06:57:26;;;;;;;8.43;4.43;;;16.70;66.00;;;16.89;49.12;95655.63;5069646;28;20244;-81
2021/06/14 06:59:53;;;;;;;6.40;4.05;;;16.80;65.90;;;16.95;49.37;95652.13;5045344;28;20238;-81
2021/06/14 07:02:20;;;;;;;7.20;3.97;;;16.80;66.10;;;17.05;49.52;95652.50;5005662;28;20204;-80
2021/06/14 07:04:47;;;;;;;8.30;4.60;;;16.90;66.30;;;17.17;49.15;95657.91;4875912;28;20241;-82
2021/06/14 07:09:03;;;;;;;8.52;4.20;;;16.90;65.60;;;17.32;48.39;95649.66;5140137;27;20982;-82
2021/06/14 07:11:31;;;;;;;8.07;4.28;;;17.10;65.50;;;17.39;47.96;95650.41;5066576;28;20194;-81
2021/06/14 07:13:58;;;;;;;6.78;4.22;;;17.20;65.30;;;17.52;48.22;95657.44;5089583;28;20220;-81
2021/06/14 07:16:25;;;;;;;11.13;4.82;;;17.30;65.60;;;17.65;48.01;95667.13;5076870;28;20197;-82
2021/06/14 07:18:54;;;;;;;6.95;4.50;;;17.30;65.50;;;17.77;48.00;95662.72;5021857;28;20716;-81
2021/06/14 07:21:22;;;;;;;8.70;4.97;;;17.40;65.40;;;17.87;47.47;95667.53;5007811;28;20732;-81
2021/06/14 07:23:50;;;;;;;7.32;4.18;;;17.50;64.90;;;18.00;47.27;95666.59;4962608;28;20220;-82
2021/06/14 07:26:17;;;;;;;6.97;4.15;;;17.70;64.90;;;18.10;47.00;95671.41;4734258;29;20230;-81
2021/06/14 07:30:58;;;;;;;7.68;4.75;;;17.70;64.80;;;18.16;45.42;95670.56;5150519;27;20555;-81
2021/06/14 07:33:24;;;;;;;9.90;4.88;;;17.90;63.80;;;18.23;45.58;95658.00;5106517;28;20217;-81
2021/06/14 07:35:51;;;;;;;7.25;4.20;;;18.00;63.80;;;18.36;46.18;95665.00;5091841;28;20223;-81
2021/06/14 07:38:18;;;;;;;8.32;4.72;;;18.00;63.90;;;18.46;46.01;95664.47;5072764;28;20718;-81
2021/06/14 07:40:45;;;;;;;8.43;5.50;;;18.10;64.00;;;18.52;44.79;95663.59;5017858;28;20197;-81
2021/06/14 07:43:12;;;;;;;7.40;4.35;;;18.30;62.90;;;18.52;44.88;95668.91;4941351;28;20212;-81
2021/06/14 07:45:42;;;;;;;7.28;4.78;;;18.30;62.80;;;18.48;44.31;95667.75;4840117;29;20207;-81
2021/06/14 07:48:10;;;;;;;7.43;4.85;;;18.30;62.20;;;18.51;44.70;95669.13;4754742;29;20220;-81
2021/06/14 07:52:38;;;;;;;7.68;4.38;;;18.30;62.30;;;18.62;45.67;95665.72;5150570;27;20637;-82
2021/06/14 07:55:06;;;;;;;6.57;4.70;;;18.40;63.00;;;18.79;45.52;95665.09;5102560;28;20674;-82
2021/06/14 07:57:32;;;;;;;5.82;4.00;;;18.50;63.10;;;18.96;45.26;95662.66;5080041;28;20216;-80
2021/06/14 07:59:59;;;;;;;7.95;4.82;;;18.50;63.10;;;19.14;45.24;95648.47;5067293;28;20222;-81
2021/06/14 08:02:26;;;;;;;6.72;4.30;;;18.70;63.20;;;19.35;45.15;95653.25;5064634;28;20302;-81
2021/06/14 08:04:52;;;;;;;8.77;4.13;;;18.80;63.20;;;19.58;44.61;95657.00;4959022;28;20226;-81
2021/06/14 08:07:19;;;;;;;5.57;4.25;;;19.00;63.30;;;19.76;44.78;95653.44;4872678;29;20616;-82
2021/06/14 08:09:48;;;;;;;5.97;3.80;;;19.10;63.30;;;19.90;44.46;95661.22;4745124;29;20727;-81
2021/06/14 08:14:20;;;;;;;8.15;4.60;;;19.20;63.20;;;20.07;43.34;95654.13;5122267;27;20989;-82
2021/06/14 08:16:47;;;;;;;5.18;4.35;;;19.50;63.10;;;20.13;43.63;95649.72;5124209;27;20197;-81
2021/06/14 08:19:30;;;;;;;9.43;4.45;;;19.70;63.20;;;20.13;43.36;95652.41;5064779;28;20986;-81
2021/06/14 08:27:12;;;;;;;8.98;4.15;;;19.70;61.80;;;19.87;43.71;95651.03;4887708;29;20213;-81
2021/06/14 08:29:38;;;;;;;6.60;4.13;;;19.80;61.70;;;19.88;43.34;95647.31;4849824;29;20708;-82
2021/06/14 08:32:32;;;;;;;6.10;4.00;;;19.80;62.10;;;19.96;43.98;95645.09;5145371;27;21091;-81
2021/06/14 08:34:58;;;;;;;6.40;4.10;;;19.70;62.30;;;20.10;43.76;95642.19;5113010;27;20216;-82
2021/06/14 08:37:25;;;;;;;7.50;4.10;;;19.70;62.20;;;20.24;43.66;95637.44;5087571;28;20688;-81
2021/06/14 08:49:44;;;;;;;6.03;4.22;;;20.10;61.90;;;20.98;42.57;95634.06;5097040;28;20348;-81
2021/06/14 08:52:12;;;;;;;8.13;4.68;;;20.40;62.00;;;21.10;42.45;95642.00;5087950;28;20657;-81
2021/06/14 08:54:41;;;;;;;6.50;4.00;;;20.50;62.00;;;21.18;42.61;95628.28;5010934;28;20281;-82
2021/06/14 08:57:09;;;;;;;7.07;3.90;;;20.60;61.60;;;21.25;42.43;95630.78;4969198;28;20214;-81
2021/06/14 08:59:38;;;;;;;5.22;3.97;;;20.70;61.40;;;21.34;42.39;95633.88;4871370;29;20750;-81
2021/06/14 09:04:45;;;;;;;5.93;3.97;;;20.70;61.10;;;21.61;42.19;95628.72;5134063;27;20968;-82
2021/06/14 09:07:12;;;;;;;5.88;3.65;;;21.00;61.10;;;21.78;41.72;95628.69;5089800;28;20676;-81
2021/06/14 09:09:39;;;;;;;7.90;4.18;;;21.10;61.10;;;21.94;41.56;95628.91;5097801;28;20226;-82
2021/06/14 09:12:07;;;;;;;6.80;3.95;;;21.20;61.10;;;22.04;40.82;95616.50;5048725;28;20220;-81
2021/06/14 09:14:41;;;;;;;5.72;3.72;;;21.40;60.60;;;22.17;40.86;95615.31;5067147;28;20222;-81
2021/06/14 09:17:17;;;;;;;5.70;3.80;;;21.50;60.40;;;22.21;40.57;95612.97;5022182;28;20211;-82
2021/06/14 09:19:52;;;;;;;6.20;4.00;;;21.60;60.10;;;22.25;40.92;95611.41;4895364;28;20236;-82
2021/06/14 09:22:27;;;;;;;5.50;3.63;;;21.70;60.20;;;22.35;40.54;95611.53;4655483;30;20707;-82
2021/06/14 09:26:43;;;;;;;7.10;4.07;;;21.70;60.00;;;22.51;41.16;95615.22;5129121;27;20544;-81
2021/06/14 09:29:20;;;;;;;6.35;3.95;;;21.90;60.60;;;22.52;40.14;95614.19;5054084;28;20221;-80
2021/06/14 09:31:58;;;;;;;5.97;4.03;;;22.00;59.90;;;22.38;39.73;95616.41;5057493;27;20203;-81
2021/06/14 09:34:42;;;;;;;7.78;4.05;;;22.00;58.80;;;22.17;39.37;95618.00;5083713;28;20227;-81
2021/06/14 09:37:12;;;;;;;5.65;3.38;;;22.00;58.50;;;22.07;40.21;95608.00;5014979;28;20206;-81
2021/06/14 09:39:44;;;;;;;6.90;3.83;;;21.90;58.80;;;22.09;40.41;95609.63;4891425;29;20221;-82
2021/06/14 09:42:20;;;;;;;6.05;3.97;;;21.90;58.50;;;22.14;39.22;95620.34;4887085;29;20207;-82
2021/06/14 09:45:08;;;;;;;4.60;3.50;;;21.80;58.10;;;22.21;39.77;95612.97;5131477;27;20675;-81
2021/06/14 09:47:34;;;;;;;5.68;3.75;;;21.80;59.00;;;22.28;39.31;95604.78;5066861;28;20660;-81
2021/06/14 09:50:10;;;;;;;4.43;3.70;;;21.90;58.50;;;22.41;39.56;95600.94;5098673;28;20233;-81
2021/06/14 09:52:36;;;;;;;5.57;3.88;;;21.90;58.30;;;22.56;39.32;95590.44;5063414;28;20732;-82
2021/06/14 09:55:15;;;;;;;5.55;3.50;;;22.00;59.00;;;22.70;39.69;95590.81;5055000;28;20236;-81
2021/06/14 09:57:42;;;;;;;6.90;3.80;;;22.10;58.80;;;22.80;39.49;95590.13;4989213;28;20217;-82
2021/06/14 10:00:15;;;;;;;5.20;3.88;;;22.20;59.10;;;22.87;39.32;95590.72;4891961;28;20573;-82
2021/06/14 10:02:45;;;;;;;3.53;3.17;;;22.30;58.70;;;22.98;39.26;95588.94;4713239;29;20584;-82
2021/06/14 10:07:20;;;;;;;6.90;3.40;;;22.30;58.40;;;23.09;39.15;95576.47;5140388;27;20640;-81
2021/06/14 10:09:55;;;;;;;4.25;3.45;;;22.50;58.50;;;23.15;38.94;95578.13;5083143;28;20769;-82
2021/06/14 10:12:30;;;;;;;5.63;3.95;;;22.50;57.80;;;23.15;38.67;95576.25;5061314;28;20210;-82
2021/06/14 10:15:04;;;;;;;5.30;3.60;;;22.60;57.80;;;23.10;38.78;95560.16;5032673;28;20310;-82
2021/06/14 10:17:41;;;;;;;5.95;3.55;;;22.60;58.00;;;23.05;38.57;95557.44;4970869;28;20234;-82
2021/06/14 10:20:20;;;;;;;6.47;3.60;;;22.60;58.00;;;22.97;38.68;95558.72;4908555;29;20240;-82
2021/06/14 10:22:52;;;;;;;5.82;3.55;;;22.60;57.60;;;22.90;38.54;95562.66;4864196;29;20216;-82
2021/06/14 10:26:00;;;;;;;5.32;3.70;;;22.60;57.70;;;22.79;38.35;95557.22;5150381;27;20989;-81
2021/06/14 10:28:28;;;;;;;4.88;3.58;;;22.60;57.00;;;22.75;38.37;95549.97;5106173;28;20242;-82
2021/06/14 10:30:56;;;;;;;6.82;4.35;;;22.50;56.90;;;22.71;37.74;95549.66;5058862;28;20345;-81
2021/06/14 10:33:29;;;;;;;4.45;3.58;;;22.50;57.00;;;22.74;38.91;95549.16;5035841;28;20228;-81
2021/06/14 10:35:57;;;;;;;5.90;3.85;;;22.50;57.40;;;22.81;38.66;95546.28;5011591;28;20197;-82
2021/06/14 10:38:45;;;;;;;6.53;3.42;;;22.40;57.60;;;22.94;38.37;95532.47;4935910;28;20242;-82
2021/06/14 10:41:13;;;;;;;4.88;3.70;;;22.50;57.40;;;23.05;38.29;95535.25;4734675;29;20219;-80
2021/06/14 10:43:40;;;;;;;5.22;3.60;;;22.50;58.90;;;23.16;38.12;95532.41;4566095;30;20320;-81
2021/06/14 10:46:23;;;;;;;5.53;3.58;;;22.60;57.80;;;23.21;37.74;95538.88;5125806;27;20327;-81
2021/06/14 10:49:02;;;;;;;4.93;3.70;;;22.60;57.00;;;23.14;37.62;95529.16;5068132;28;20223;-81
2021/06/14 10:51:32;;;;;;;5.43;3.53;;;22.70;56.60;;;23.14;37.66;95528.34;5065925;28;20213;-81
2021/06/14 10:54:11;;;;;;;3.55;3.15;;;22.70;56.50;;;23.07;37.11;95522.41;5036962;28;20233;-82
2021/06/14 10:56:39;;;;;;;6.43;3.85;;;22.70;56.40;;;23.05;37.63;95511.16;4923854;28;20212;-81
2021/06/14 10:59:14;;;;;;;5.25;3.80;;;22.70;56.00;;;22.97;36.77;95510.56;4909058;29;20262;-81
2021/06/14 11:01:44;;;;;;;5.55;3.85;;;22.70;55.70;;;22.90;36.86;95506.47;4825532;29;20211;-81
2021/06/14 11:06:54;;;;;;;4.53;3.50;;;22.70;55.80;;;22.94;37.35;95500.38;5133764;27;20553;-80
2021/06/14 11:09:21;;;;;;;5.13;3.55;;;22.70;55.80;;;22.97;37.65;95491.84;5049645;28;20317;-81
2021/06/14 11:11:56;;;;;;;5.13;3.45;;;22.60;55.90;;;23.02;36.37;95486.53;5061561;28;20299;-80
2021/06/14 11:14:54;;;;;;;4.35;3.28;;;22.60;55.20;;;23.04;37.51;95480.91;4958357;28;20249;-82
2021/06/14 11:17:24;;;;;;;4.18;3.30;;;22.70;55.90;;;23.14;37.16;95481.00;4851880;29;20222;-81
2021/06/14 11:20:00;;;;;;;7.38;3.45;;;22.70;56.10;;;23.23;36.45;95477.84;4812797;29;20246;-82
2021/06/14 11:22:47;;;;;;;5.45;4.05;;;22.80;55.60;;;23.26;36.70;95475.47;4772269;29;20734;-81
2021/06/14 11:28:31;;;;;;;4.30;3.17;;;22.90;56.40;;;23.45;37.01;95470.50;5146334;27;21168;-82
2021/06/14 11:31:00;;;;;;;5.93;3.40;;;22.90;56.30;;;23.57;37.05;95464.94;5105199;27;20216;-81
2021/06/14 11:33:29;;;;;;;5.90;3.53;;;23.00;56.10;;;23.64;36.82;95454.81;5073935;28;20236;-82
2021/06/14 11:35:57;;;;;;;6.40;3.90;;;23.10;56.30;;;23.74;37.08;95455.91;5030477;28;20236;-82
2021/06/14 11:38:26;;;;;;;3.95;3.00;;;23.10;55.80;;;23.82;36.65;95448.16;4942711;28;20668;-81
2021/06/14 11:40:57;;;;;;;4.68;3.28;;;23.30;55.60;;;23.92;36.71;95451.94;4843755;29;20209;-82
2021/06/14 11:43:24;;;;;;;5.05;3.42;;;23.30;55.70;;;24.00;36.55;95459.50;4718005;30;20247;-82
2021/06/14 11:46:18;;;;;;;5.10;3.08;;;23.40;56.00;;;24.11;36.21;95446.94;5136860;27;20571;-82